sensor_id;sensor_type;location;lat;lon;timestamp;temperature;humidity
52167;DHT22;38149;52.666;6.428;2023-07-13T10:39:27;18.90;99.90
52167;DHT22;38149;52.666;6.428;2023-07-13T10:41:58;18.90;99.90
52167;DHT22;38149;52.666;6.428;2023-07-13T10:44:53;18.90;99.90
52167;DHT22;38149;52.666;6.428;2023-07-13T10:47:28;19.00;99.90
52167;DHT22;38149;52.666;6.428;2023-07-13T11:51:15;18.90;99.90
52167;DHT22;38149;52.666;6.428;2023-07-13T11:54:30;19.30;99.90
52167;DHT22;38149;52.666;6.428;2023-07-13T12:34:56;19.90;99.90
52167;DHT22;38149;52.666;6.428;2023-07-13T13:35:18;21.90;99.90
52167;DHT22;38149;52.666;6.428;2023-07-13T14:56:47;22.40;99.90
52167;DHT22;38149;52.666;6.428;2023-07-13T15:23:35;22.80;99.90
52167;DHT22;38149;52.666;6.428;2023-07-13T18:00:36;22.40;99.90
52167;DHT22;38149;52.666;6.428;2023-07-13T18:07:36;23.80;99.90
52167;DHT22;38149;52.666;6.428;2023-07-13T18:10:02;22.30;99.90
52167;DHT22;38149;52.666;6.428;2023-07-13T18:12:28;22.20;99.90
52167;DHT22;38149;52.666;6.428;2023-07-13T18:14:55;22.20;99.90
52167;DHT22;38149;52.666;6.428;2023-07-13T18:17:20;22.00;99.90
52167;DHT22;38149;52.666;6.428;2023-07-13T18:19:49;22.10;99.90
52167;DHT22;38149;52.666;6.428;2023-07-13T18:22:20;22.10;99.90
52167;DHT22;38149;52.666;6.428;2023-07-13T18:25:18;22.90;99.90
52167;DHT22;38149;52.666;6.428;2023-07-13T18:27:47;23.70;99.90
52167;DHT22;38149;52.666;6.428;2023-07-13T18:30:15;22.30;99.90
52167;DHT22;38149;52.666;6.428;2023-07-13T18:32:52;22.10;99.90
52167;DHT22;38149;52.666;6.428;2023-07-13T18:35:34;22.40;99.90
52167;DHT22;38149;52.666;6.428;2023-07-13T18:38:03;22.00;99.90
52167;DHT22;38149;52.666;6.428;2023-07-13T18:40:32;22.00;99.90
52167;DHT22;38149;52.666;6.428;2023-07-13T18:42:59;22.00;99.90
52167;DHT22;38149;52.666;6.428;2023-07-13T18:45:25;21.90;99.90
52167;DHT22;38149;52.666;6.428;2023-07-13T18:48:01;21.90;99.90
52167;DHT22;38149;52.666;6.428;2023-07-13T18:57:56;21.50;99.90
52167;DHT22;38149;52.666;6.428;2023-07-13T19:00:33;21.40;99.90
52167;DHT22;38149;52.666;6.428;2023-07-13T19:03:17;21.40;99.90
52167;DHT22;38149;52.666;6.428;2023-07-13T19:06:31;21.00;99.90
52167;DHT22;38149;52.666;6.428;2023-07-13T19:08:56;21.40;99.90
52167;DHT22;38149;52.666;6.428;2023-07-13T19:11:28;21.40;99.90
52167;DHT22;38149;52.666;6.428;2023-07-13T19:14:11;21.30;99.90
52167;DHT22;38149;52.666;6.428;2023-07-13T19:16:38;21.30;99.90
52167;DHT22;38149;52.666;6.428;2023-07-13T19:26:55;21.00;99.90
52167;DHT22;38149;52.666;6.428;2023-07-13T19:29:25;21.00;99.90
52167;DHT22;38149;52.666;6.428;2023-07-13T19:32:01;21.00;99.90
52167;DHT22;38149;52.666;6.428;2023-07-13T19:34:27;22.20;99.90
52167;DHT22;38149;52.666;6.428;2023-07-13T19:37:04;20.90;99.90
52167;DHT22;38149;52.666;6.428;2023-07-13T19:39:39;20.80;99.90
52167;DHT22;38149;52.666;6.428;2023-07-13T19:42:17;20.80;99.90
52167;DHT22;38149;52.666;6.428;2023-07-13T19:44:46;21.50;99.90
52167;DHT22;38149;52.666;6.428;2023-07-13T19:47:13;20.90;99.90
52167;DHT22;38149;52.666;6.428;2023-07-13T19:49:40;20.90;99.90
52167;DHT22;38149;52.666;6.428;2023-07-13T19:52:28;20.90;99.90
52167;DHT22;38149;52.666;6.428;2023-07-13T19:54:58;20.80;99.90
52167;DHT22;38149;52.666;6.428;2023-07-13T19:57:27;21.20;99.90
52167;DHT22;38149;52.666;6.428;2023-07-13T19:59:56;20.90;99.90
52167;DHT22;38149;52.666;6.428;2023-07-13T20:02:26;21.20;99.90
52167;DHT22;38149;52.666;6.428;2023-07-13T20:05:39;20.90;99.90
52167;DHT22;38149;52.666;6.428;2023-07-13T20:08:19;20.90;99.90
52167;DHT22;38149;52.666;6.428;2023-07-13T20:23:16;23.80;99.90
52167;DHT22;38149;52.666;6.428;2023-07-13T20:25:46;20.70;99.90
52167;DHT22;38149;52.666;6.428;2023-07-13T20:30:51;20.40;99.90
52167;DHT22;38149;52.666;6.428;2023-07-13T20:33:30;20.70;99.90
52167;DHT22;38149;52.666;6.428;2023-07-13T20:36:30;20.40;99.90
52167;DHT22;38149;52.666;6.428;2023-07-13T20:38:57;21.50;99.90
52167;DHT22;38149;52.666;6.428;2023-07-13T20:41:42;20.50;99.90
52167;DHT22;38149;52.666;6.428;2023-07-13T20:44:08;20.30;99.90
52167;DHT22;38149;52.666;6.428;2023-07-13T20:46:34;20.40;99.90
52167;DHT22;38149;52.666;6.428;2023-07-13T20:49:00;20.30;99.90
52167;DHT22;38149;52.666;6.428;2023-07-13T20:51:30;20.60;99.90
52167;DHT22;38149;52.666;6.428;2023-07-13T20:53:59;20.90;99.90
52167;DHT22;38149;52.666;6.428;2023-07-13T20:56:31;18.60;99.90
52167;DHT22;38149;52.666;6.428;2023-07-13T21:02:42;21.70;99.90
52167;DHT22;38149;52.666;6.428;2023-07-13T21:05:16;20.20;99.90
52167;DHT22;38149;52.666;6.428;2023-07-13T21:07:45;20.10;99.90
52167;DHT22;38149;52.666;6.428;2023-07-13T21:10:20;20.10;99.90
52167;DHT22;38149;52.666;6.428;2023-07-13T21:12:50;20.20;99.90
52167;DHT22;38149;52.666;6.428;2023-07-13T21:15:31;19.90;99.90
52167;DHT22;38149;52.666;6.428;2023-07-13T21:18:01;19.90;99.90
52167;DHT22;38149;52.666;6.428;2023-07-13T21:20:33;19.90;99.90
52167;DHT22;38149;52.666;6.428;2023-07-13T21:23:43;19.70;99.90
52167;DHT22;38149;52.666;6.428;2023-07-13T21:33:23;19.60;99.90
52167;DHT22;38149;52.666;6.428;2023-07-13T21:36:08;19.80;99.90
52167;DHT22;38149;52.666;6.428;2023-07-13T21:39:04;19.90;99.90
52167;DHT22;38149;52.666;6.428;2023-07-13T21:41:58;19.50;99.90
52167;DHT22;38149;52.666;6.428;2023-07-13T22:24:25;19.20;99.90
52167;DHT22;38149;52.666;6.428;2023-07-13T22:26:58;20.30;99.90
52167;DHT22;38149;52.666;6.428;2023-07-13T22:29:29;19.20;99.90
52167;DHT22;38149;52.666;6.428;2023-07-13T22:32:03;19.00;99.90
52167;DHT22;38149;52.666;6.428;2023-07-13T23:25:31;18.90;99.90
52167;DHT22;38149;52.666;6.428;2023-07-13T23:28:00;18.50;99.90
52167;DHT22;38149;52.666;6.428;2023-07-13T23:30:28;18.70;99.90
52167;DHT22;38149;52.666;6.428;2023-07-13T23:33:01;18.50;99.90
52167;DHT22;38149;52.666;6.428;2023-07-13T23:35:28;19.20;99.90
52167;DHT22;38149;52.666;6.428;2023-07-13T23:37:54;18.80;99.90
52167;DHT22;38149;52.666;6.428;2023-07-13T23:43:20;18.50;99.90
52167;DHT22;38149;52.666;6.428;2023-07-13T23:45:46;19.70;99.90
52167;DHT22;38149;52.666;6.428;2023-07-13T23:48:13;18.50;99.90
52167;DHT22;38149;52.666;6.428;2023-07-13T23:50:43;19.20;99.90
